Itamari, Brazil
Current Conditions -  °F | °C
As of 4:00 AM on Friday 24 Oct 2014 (Local Time) from SBIL Reporting Station
Rain Showers Rain Showers  
Wind Chill: 70°   Ceiling: 2000
Heat Index: 70°   Visibility: 5mi
Dew Point: 68°   Wind: 7mph
Humidity: 94%   Direction: 240°WSW
Pressure: 29.97"   Gusts: NA
Location:  13.79°S, 39.67°W
Report Text: SBIL 240700Z 24006KT 8000 VCSH SCT010 BKN020 BKN070 21/20 Q1015
Loading
Personal Weather Stations






























Interactive Weather Map
Tropical Storm Tracking
New forecast layout! Learn more

10-Day Weather Forecast

Advertisements
Track Severe Weather on mobile